This is the latest recevied weather packets stored in our database for station/object DO1BDB-12. If no packets are shown the sender has not sent any weather packets the latest 10 day(s).
| Time | Temp. | Humidity | Pressure | Rain* | Wind** | Luminosity | Snow |
|---|---|---|---|---|---|---|---|
| 1787825460 | 24.44° C | 41% | 101.9 hPa | - | - | - | - |
| 1787825395 | 23.89° C | 41% | 101.9 hPa | - | - | - | - |
| 1787825329 | 24.44° C | 40% | 101.9 hPa | - | - | - | - |
| 1787825263 | 25° C | 40% | 101.9 hPa | - | - | - | - |
| 1787825197 | 24.44° C | 41% | 101.9 hPa | - | - | - | - |
| 1787825131 | 24.44° C | 41% | 101.9 hPa | - | - | - | - |
| 1787825066 | 24.44° C | 40% | 101.9 hPa | - | - | - | - |
| 1787825000 | 24.44° C | 41% | 101.9 hPa | - | - | - | - |
| 1787824934 | 24.44° C | 41% | 102 hPa | - | - | - | - |
| 1787824868 | 25° C | 40% | 101.9 hPa | - | - | - | - |
| 1787824802 | 25° C | 40% | 101.9 hPa | - | - | - | - |
| 1787824736 | 25° C | 40% | 102 hPa | - | - | - | - |
| 1787824670 | 25° C | 40% | 102 hPa | - | - | - | - |
| 1787824605 | 25° C | 41% | 101.9 hPa | - | - | - | - |
| 1787824539 | 24.44° C | 41% | 102 hPa | - | - | - | - |
| 1787824473 | 24.44° C | 40% | 102 hPa | - | - | - | - |
| 1787824407 | 24.44° C | 40% | 102 hPa | - | - | - | - |
| 1787824341 | 26.11° C | 40% | 102 hPa | - | - | - | - |
| 1787824275 | 26.67° C | 37% | 102 hPa | - | - | - | - |
| 1787824210 | 25.56° C | 39% | 102 hPa | - | - | - | - |
| 1787824144 | 26.11° C | 39% | 102 hPa | - | - | - | - |
| 1787824078 | 26.67° C | 37% | 102 hPa | - | - | - | - |
| 1787824012 | 26.11° C | 38% | 102 hPa | - | - | - | - |
| 1787823946 | 27.78° C | 35% | 102 hPa | - | - | - | - |
| 1787823880 | 26.67° C | 35% | 102 hPa | - | - | - | - |
* Rain since midnight (hover to see other rain measurements)
** Current wind speed in m/s (hover to see current wind gust speed)